createdAt,value
2023-05-10T00:00:49.787Z,73.6
2023-05-10T00:05:49.788Z,73.6
2023-05-10T00:10:49.833Z,73.6
2023-05-10T00:20:49.848Z,73.7
2023-05-10T00:25:49.831Z,73.6
2023-05-10T00:35:49.816Z,74.1
2023-05-10T00:50:49.819Z,73.5
2023-05-10T01:00:49.804Z,73.5
2023-05-10T01:05:49.822Z,73.4
2023-05-10T01:10:49.826Z,73.6
2023-05-10T01:30:49.806Z,73.4
2023-05-10T01:35:49.823Z,73.4
2023-05-10T01:55:49.821Z,73.3
2023-05-10T02:00:49.847Z,73.4
2023-05-10T02:05:49.826Z,73.5
2023-05-10T02:10:49.839Z,73.7
2023-05-10T02:15:49.845Z,73.8
2023-05-10T02:25:49.836Z,73.6
2023-05-10T02:35:49.834Z,73.6
2023-05-10T02:40:49.844Z,73.8
2023-05-10T02:45:49.858Z,73.7
2023-05-10T02:55:49.843Z,73.6
2023-05-10T03:05:49.863Z,73.8
2023-05-10T03:15:49.912Z,73.6
2023-05-10T03:20:49.856Z,73.6
2023-05-10T03:35:49.854Z,73.5
2023-05-10T03:45:50.124Z,73.8
2023-05-10T03:55:49.846Z,73.6
2023-05-10T04:00:49.863Z,73.5
2023-05-10T04:05:49.902Z,73.5
2023-05-10T04:15:49.843Z,73.6
2023-05-10T04:20:49.850Z,73.6
2023-05-10T04:30:49.910Z,73.5
2023-05-10T04:35:49.855Z,73.7
2023-05-10T04:45:49.857Z,73.6
2023-05-10T04:55:49.858Z,73.5
2023-05-10T05:00:49.868Z,73.4
2023-05-10T05:05:49.860Z,73.5
2023-05-10T05:25:50.075Z,73.4
2023-05-10T05:35:49.861Z,73.4
2023-05-10T05:40:49.895Z,73.3
2023-05-10T05:50:49.860Z,73.3
2023-05-10T05:55:49.888Z,73.3
2023-05-10T06:05:49.881Z,73.5
2023-05-10T06:10:49.883Z,73.5
2023-05-10T06:15:49.862Z,73.4
2023-05-10T06:25:49.872Z,73.4
2023-05-10T06:30:49.868Z,73.4
2023-05-10T06:40:49.883Z,73.3
2023-05-10T06:50:49.878Z,73.5
2023-05-10T07:00:49.919Z,73.5
2023-05-10T07:10:49.877Z,73.3
2023-05-10T07:20:49.912Z,73.3
2023-05-10T07:25:49.864Z,73.3
2023-05-10T07:30:49.962Z,73.3
2023-05-10T07:35:49.866Z,73.3
2023-05-10T07:45:49.894Z,73.2
2023-05-10T07:50:49.855Z,73.3
2023-05-10T08:00:49.881Z,73.3
2023-05-10T08:10:49.866Z,73.3
2023-05-10T08:15:49.897Z,73.3
2023-05-10T08:25:49.852Z,73.3
2023-05-10T08:45:49.884Z,73.8
2023-05-10T08:55:49.861Z,73.4
2023-05-10T09:00:50.026Z,73.3
2023-05-10T09:05:49.880Z,73.3
2023-05-10T09:25:49.898Z,73.5
2023-05-10T09:45:49.937Z,73.6
2023-05-10T09:55:49.903Z,73.8
2023-05-10T10:10:50.947Z,73.9
2023-05-10T10:20:49.893Z,74.1
2023-05-10T10:25:49.959Z,73.9
2023-05-10T10:30:49.892Z,73.8
2023-05-10T10:40:49.890Z,73.6
2023-05-10T10:45:49.914Z,73.6
2023-05-10T10:50:49.925Z,73.6
2023-05-10T10:55:49.923Z,73.6
2023-05-10T11:00:49.964Z,73.6
2023-05-10T11:10:49.913Z,74.4
2023-05-10T11:20:49.907Z,73.7
2023-05-10T11:30:49.937Z,73.6
2023-05-10T11:35:49.914Z,73.6
2023-05-10T11:40:49.917Z,73.6
2023-05-10T11:45:49.963Z,73.6
2023-05-10T11:55:49.926Z,74.3
2023-05-10T12:10:49.919Z,73.7
2023-05-10T12:25:49.931Z,73.5
2023-05-10T12:35:49.934Z,73.5
2023-05-10T12:45:50.006Z,74.3
2023-05-10T12:55:49.937Z,73.7
2023-05-10T13:00:49.967Z,73.6
2023-05-10T13:05:49.941Z,73.6
2023-05-10T13:15:49.957Z,73.6
2023-05-10T13:25:49.948Z,73.7
2023-05-10T13:30:49.946Z,74.3
2023-05-10T13:35:49.974Z,74.2
2023-05-10T13:50:49.945Z,73.5
2023-05-10T14:00:49.952Z,73.5
2023-05-10T14:05:49.971Z,73.5
2023-05-10T14:10:49.978Z,73.5
2023-05-10T14:20:49.967Z,74.1
2023-05-10T14:30:49.973Z,73.6
2023-05-10T14:40:49.963Z,73.4
2023-05-10T14:50:49.953Z,73.3
2023-05-10T15:05:49.957Z,73.5
2023-05-10T15:10:49.947Z,73.9
2023-05-10T15:20:49.964Z,74
2023-05-10T15:30:50.075Z,73.4
2023-05-10T15:40:49.977Z,73.6
2023-05-10T15:45:49.967Z,73.7
2023-05-10T15:55:49.957Z,75.4
2023-05-10T16:00:49.995Z,75.4
2023-05-10T16:05:49.966Z,74.9
2023-05-10T16:15:49.963Z,73.9
2023-05-10T16:25:49.967Z,73.7
2023-05-10T16:30:49.977Z,73.6
2023-05-10T16:40:50.080Z,74.6
2023-05-10T16:50:49.954Z,75.2
2023-05-10T17:00:49.993Z,74.3
2023-05-10T17:05:50.061Z,74.1
2023-05-10T17:20:49.984Z,73.8
2023-05-10T17:35:49.996Z,74.4
2023-05-10T17:45:50.002Z,73.9
2023-05-10T17:50:49.972Z,73.8
2023-05-10T17:55:49.986Z,73.8
2023-05-10T18:00:50.021Z,73.7
2023-05-10T18:10:49.980Z,73.7
2023-05-10T18:20:49.977Z,73.8
2023-05-10T18:30:49.984Z,73.8
2023-05-10T18:40:49.968Z,73.7
2023-05-10T18:45:50.002Z,73.6
2023-05-10T18:50:50.030Z,73.6
2023-05-10T19:00:49.982Z,73.5
2023-05-10T19:05:50.009Z,73.6
2023-05-10T19:15:50.123Z,73.6
2023-05-10T19:25:49.980Z,73.5
2023-05-10T19:30:49.994Z,73.5
2023-05-10T19:40:49.988Z,73.6
2023-05-10T19:45:50.053Z,73.6
2023-05-10T19:55:49.985Z,73.7
2023-05-10T20:00:50.097Z,73.6
2023-05-10T20:20:49.997Z,73.6
2023-05-10T20:30:52.914Z,73.3
2023-05-10T20:40:49.990Z,73.5
2023-05-10T20:45:50.014Z,73.8
2023-05-10T20:55:49.982Z,73.4
2023-05-10T21:00:49.989Z,73.4
2023-05-10T21:05:50.035Z,73.3
2023-05-10T21:15:50.050Z,73.6
2023-05-10T21:25:49.989Z,73.4
2023-05-10T21:30:50.009Z,73.5
2023-05-10T21:35:50.087Z,73.8
2023-05-10T21:45:50.021Z,73.4
2023-05-10T21:55:50.014Z,73.5
2023-05-10T22:05:50.003Z,73.3
2023-05-10T22:15:50.008Z,73.5
2023-05-10T22:25:49.996Z,73.6
2023-05-10T22:30:50.032Z,73.5
2023-05-10T22:35:50.045Z,73.6
2023-05-10T22:45:50.023Z,73.6
2023-05-10T22:50:50.001Z,73.7
2023-05-10T23:00:50.009Z,73.7
2023-05-10T23:10:50.006Z,74
2023-05-10T23:15:50.185Z,73.5
2023-05-10T23:20:50.029Z,73.4
2023-05-10T23:30:50.000Z,73.5
2023-05-10T23:40:50.046Z,73.4
2023-05-10T23:50:50.015Z,73.3
